• Join FlightAware (Why Join?)
  • Login
  • US Flag 
03:44AM EDT


 

Airport Tracker/Info


-or-


 

Live Flight TrackerFlight Track Log ✈ FFT920 ✈ 08-Sep-2013 ✈ KRDU - KTTN

Flight Track Log - Related Links

Times and Time Zones

All times are in EDT time to prevent confusion due to time zone crossing. See the FFT920 flight status page for this flight to view local times or setup timezone preferences in your user account.

Time Position Orientation Groundspeed Altitude Reporting Facility
EDT Latitude Longitude Course Direction KTS MPH feet Rate Location/Type
04:40PM 35.9140 -78.7630 28° Northeast 163 188 1,900  Level FlightAware
04:40PM 35.9290 -78.7540 26° Northeast 187 215 2,300 1,320 Climbing FlightAware
04:40PM 35.9460 -78.7430 28° Northeast 223 257 2,800 1,680 Climbing FlightAware
04:41PM 35.9660 -78.7310 26° Northeast 253 291 3,400 2,520 Climbing FlightAware
04:41PM 36.0030 -78.7190 15° North 264 304 4,900 3,240 Climbing FlightAware
04:41PM 36.0280 -78.7100 16° North 265 305 6,300 3,420 Climbing FlightAware
04:42PM 36.0550 -78.7010 15° North 267 307 7,500 3,360 Climbing FlightAware
04:42PM 36.0790 -78.6950 11° North 269 310 8,600 3,060 Climbing FlightAware
04:43PM 36.1060 -78.6860 15° North 276 318 9,600 2,460 Climbing FlightAware
04:43PM 36.1530 -78.6710 14° North 300 345 11,000 1,920 Climbing FlightAware
04:44PM 36.2000 -78.6570 14° North 329 379 11,900 2,040 Climbing FlightAware
04:44PM 36.2540 -78.6400 14° North 341 392 13,400 2,400 Climbing FlightAware
04:45PM 36.3110 -78.6220 14° North 353 406 14,800 1,980 Climbing FlightAware
04:45PM 36.3650 -78.6050 14° North 371 427 15,700 1,920 Climbing FlightAware
04:46PM 36.4270 -78.5860 14° North 377 434 17,100 2,220 Climbing FlightAware
04:47PM 36.4750 -78.5690 16° North 380 437 18,200 960 Climbing FlightAware
04:47PM 36.5330 -78.5490 15° North 380 437 18,200  Level FlightAware
04:48PM 36.5850 -78.5300 16° North 380 437 18,200  Level FlightAware
04:48PM 36.6380 -78.5110 16° North 380 437 18,200  Level FlightAware
04:49PM 36.6880 -78.4930 16° North 380 437 18,200  Level FlightAware
04:50PM 36.7400 -78.4750 16° North 380 437 18,200  Level FlightAware
04:50PM 36.7930 -78.4560 16° North 380 437 18,200 4,380 Level FlightAware
04:52PM 36.9860 -78.2770 37° Northeast 433 498 26,800 5,040 Climbing FlightAware
04:52PM 37.0440 -78.2290 33° Northeast 432 497 27,800 1,620 Climbing FlightAware
04:53PM 37.1000 -78.1840 33° Northeast 431 496 28,700 1,980 Climbing FlightAware
04:53PM 37.1610 -78.1340 33° Northeast 420 483 30,200 1,440 Climbing FlightAware
04:54PM 37.2370 -78.0720 33° Northeast 419 482 30,800 600 Climbing FlightAware
04:55PM 37.2970 -78.0220 34° Northeast 421 484 31,100 120 Climbing FlightAware
04:55PM 37.3540 -77.9750 33° Northeast 420 483 31,000 -120 Descending FlightAware
04:56PM 37.4110 -77.9280 33° Northeast 422 486 31,000  Level FlightAware
04:56PM 37.4610 -77.8850 34° Northeast 424 488 31,000 -120 Level FlightAware
04:57PM 37.5220 -77.8340 34° Northeast 424 488 30,900 -420 Descending FlightAware
04:58PM 37.5810 -77.7810 35° Northeast 424 488 30,500 -660 Descending FlightAware
04:58PM 37.6380 -77.7290 36° Northeast 423 487 30,100 -480 Descending FlightAware
04:59PM 37.6930 -77.6790 36° Northeast 426 490 30,000 -120 Descending FlightAware
04:59PM 37.7500 -77.6270 36° Northeast 426 490 30,000  Level FlightAware
05:00PM 37.8020 -77.5810 35° Northeast 427 491 30,000  Level FlightAware
05:01PM 37.8630 -77.5240 36° Northeast 429 494 30,000  Level FlightAware
05:01PM 37.9160 -77.4760 36° Northeast 430 495 30,000  Level FlightAware
05:02PM 37.9730 -77.4240 36° Northeast 431 496 30,000  Level FlightAware
05:02PM 38.0360 -77.3670 35° Northeast 433 498 30,000  Level FlightAware
05:03PM 38.0880 -77.3190 36° Northeast 434 499 30,000  Level FlightAware
05:03PM 38.1400 -77.2710 36° Northeast 433 498 30,000  Level FlightAware
05:04PM 38.1990 -77.2170 36° Northeast 434 499 30,000  Level FlightAware
05:05PM 38.2590 -77.1610 36° Northeast 435 501 30,000  Level FlightAware
05:05PM 38.3180 -77.1060 36° Northeast 435 501 30,000  Level FlightAware
05:06PM 38.3770 -77.0520 36° Northeast 437 503 30,000  Level FlightAware
05:06PM 38.4290 -77.0030 36° Northeast 436 502 30,000 -480 Level FlightAware
05:07PM 38.4890 -76.9480 36° Northeast 433 498 29,500 -1,800 Descending FlightAware
05:08PM 38.5440 -76.8960 36° Northeast 425 489 27,900 -2,820 Descending FlightAware
05:08PM 38.5950 -76.8490 36° Northeast 426 490 26,300 -2,940 Descending FlightAware
05:09PM 38.6540 -76.7940 36° Northeast 419 482 24,600 -2,160 Descending FlightAware
05:09PM 38.6930 -76.7500 41° Northeast 423 487 24,000 -840 Descending FlightAware
05:09PM 38.7100 -76.7150 58° Northeast 432 497 24,000 -720 Level FlightAware
05:10PM 38.7180 -76.6850 71° East 433 498 23,700 -2,040 Descending FlightAware
05:10PM 38.7360 -76.5990 75° East 426 490 22,400 -2,160 Descending FlightAware
05:11PM 38.7580 -76.4940 75° East 429 494 20,900 -1,980 Descending FlightAware
05:11PM 38.7740 -76.4190 75° East 424 488 20,000 -1,800 Descending FlightAware
05:12PM 38.7920 -76.3320 75° East 420 483 18,900 -1,860 Descending FlightAware
05:13PM 38.8110 -76.2380 75° East 410 472 17,700 -1,740 Descending FlightAware
05:13PM 38.8280 -76.1540 75° East 399 459 16,700 -1,740 Descending FlightAware
05:14PM 38.8460 -76.0680 75° East 397 457 15,600 -1,380 Descending FlightAware
05:15PM 38.8610 -75.9940 75° East 391 450 15,100 -480 Descending FlightAware
05:15PM 38.8760 -75.9180 76° East 393 452 15,100  Level FlightAware
05:16PM 38.8990 -75.8390 69° East 379 436 15,100  Level FlightAware
05:16PM 38.9320 -75.8010 42° Northeast 369 425 15,100  Level FlightAware
05:17PM 38.9750 -75.7590 37° Northeast 368 423 15,100 -300 Level FlightAware
05:17PM 39.0210 -75.7160 36° Northeast 365 420 14,800 -840 Descending FlightAware
05:18PM 39.0660 -75.6800 32° Northeast 346 398 14,200 -1,320 Descending FlightAware
05:18PM 39.1190 -75.6720 North 322 371 13,400 -1,500 Descending FlightAware
05:19PM 39.1640 -75.6670 North 311 358 12,600 -1,200 Descending FlightAware
05:19PM 39.2130 -75.6610 North 295 339 12,100 -420 Descending FlightAware
05:20PM 39.2630 -75.6560 North 290 334 12,100 -120 Level FlightAware
05:20PM 39.2840 -75.6510 10° North 288 331 12,000  Descending FlightAware
05:21PM 39.3260 -75.6170 32° Northeast 294 338 12,100 60 Climbing FlightAware
05:21PM 39.3620 -75.5860 34° Northeast 293 337 12,100  Level FlightAware
05:22PM 39.3980 -75.5610 28° Northeast 282 325 12,100  Level FlightAware
05:22PM 39.4350 -75.5480 15° North 281 323 12,100  Level FlightAware
05:23PM 39.4890 -75.5310 14° North 285 328 12,100  Level FlightAware
05:23PM 39.5060 -75.5190 29° Northeast 292 336 12,100  Level FlightAware
05:24PM 39.5200 -75.4980 49° Northeast 304 350 12,100  Level FlightAware
05:24PM 39.5460 -75.4520 54° Northeast 306 352 12,100 -420 Level FlightAware
05:25PM 39.5750 -75.4010 54° Northeast 304 350 11,700 -840 Descending FlightAware
05:25PM 39.6070 -75.3440 54° Northeast 305 351 11,100 -900 Descending FlightAware
05:26PM 39.6370 -75.2890 55° Northeast 303 349 10,500 -840 Descending FlightAware
05:27PM 39.6690 -75.2320 54° Northeast 300 345 10,100 -600 Descending FlightAware
05:27PM 39.6850 -75.2020 55° Northeast 303 349 10,000 -600 Descending FlightAware
05:27PM 39.6990 -75.1780 53° Northeast 301 346 9,700 -1,020 Descending FlightAware
05:27PM 39.7140 -75.1510 54° Northeast 300 345 9,400 -1,080 Descending FlightAware
05:28PM 39.7310 -75.1210 54° Northeast 299 344 9,100 -1,080 Descending FlightAware
05:28PM 39.7470 -75.0990 47° Northeast 292 336 8,800 -1,080 Descending FlightAware
05:28PM 39.7640 -75.0890 24° Northeast 283 326 8,600 -1,080 Descending FlightAware
05:29PM 39.7870 -75.0760 23° Northeast 279 321 8,200 -780 Descending FlightAware
05:29PM 39.8100 -75.0640 22° Northeast 278 320 8,100 -300 Descending FlightAware
05:29PM 39.8400 -75.0480 22° Northeast 281 323 8,000 -660 Descending FlightAware
05:30PM 39.8600 -75.0370 23° Northeast 280 322 7,700 -1,200 Descending FlightAware
05:30PM 39.8880 -75.0230 21° North 274 315 7,200 -1,380 Descending FlightAware
05:30PM 39.9160 -75.0080 22° Northeast 261 300 6,600 -2,220 Descending FlightAware
05:31PM 39.9380 -74.9960 23° Northeast 265 305 5,600 -2,400 Descending FlightAware
05:31PM 39.9620 -74.9840 21° North 262 302 5,000 -1,860 Descending FlightAware
05:31PM 39.9850 -74.9730 20° North 260 299 4,300 -1,860 Descending FlightAware
05:32PM 40.0050 -74.9630 21° North 258 297 3,800 -1,260 Descending FlightAware
05:32PM 40.0280 -74.9520 20° North 246 283 3,500 -840 Descending FlightAware
05:33PM 40.0540 -74.9400 19° North 233 268 3,200 -540 Descending FlightAware
05:33PM 40.0730 -74.9300 22° Northeast 220 253 3,100 -420 Descending FlightAware
05:33PM 40.1000 -74.9190 17° North 208 239 2,900 -420 Descending FlightAware
05:34PM 40.1190 -74.9160 North 194 223 2,800 -600 Descending FlightAware
05:34PM 40.1360 -74.9150 North 184 212 2,500 -420 Descending FlightAware
05:34PM 40.1560 -74.9110 North 176 203 2,500  Level FlightAware
05:35PM 40.1680 -74.9070 14° North 178 205 2,500 -480 Level FlightAware
05:35PM 40.1870 -74.9000 16° North 180 207 2,200 -480 Descending FlightAware
05:36PM 40.2090 -74.8920 16° North 179 206 2,100 -600 Descending FlightAware
05:36PM 40.2300 -74.8750 32° Northeast 168 193 1,600 -1,020 Descending FlightAware
05:37PM 40.2500 -74.8500 32° Northeast 125 144 600 -1,140 Descending Philadelphia TRACON